Nova — WDF2204 — position and weather

sailwx.info

Track history (hours):
 
Tides and Currents Weather Stations Pressure Air Temp Water Temp Dewpoint Dewpoint Depression Visibility Wind Speed Wind Dir Waves Ship Positions

Nova

Owner: Hickey Marine Enterprises, Inc., Vancouver, WA. More information available from US FCC via Universal Licensing System and Coast Guard Vessel Documentation Center.

Last reported at 2017-Dec-07 19:37 UTC. Time now 2017-Dec-16 16:55 UTC.
Position N 45°39' W 122°45'.
Warning: this ship's position is 8 days out of date.

Length 8 m; draft 0.2 m.

MMSI: 367425990.

Date/timePositionNaut miles runAvg speedWind from/ knotsBaromVisibWave heightAir tempDewpointWater temp
2017-Dec-07 19:37N 45°39' W 122°45'0 0.0
2017-Dec-07 19:30N 45°39' W 122°45'2 4.1
2017-Dec-07 19:00N 45°38' W 122°42'1 1.8
2017-Dec-07 18:30N 45°38' W 122°41'1 1.5
2017-Dec-07 17:59N 45°38' W 122°42'2 4.0
2017-Dec-07 17:29N 45°39' W 122°45'  
2017-Dec-02 00:03N 45°38' W 122°42'0 0.9
2017-Dec-01 23:57N 45°38' W 122°42'0 0.8
2017-Dec-01 23:29N 45°38' W 122°42'0 0.1
2017-Dec-01 23:00N 45°38' W 122°42'0 0.1
2017-Dec-01 22:30N 45°38' W 122°42'0 0.1
2017-Dec-01 21:57N 45°38' W 122°42'0 0.0
2017-Dec-01 21:30N 45°38' W 122°42'0 0.4
2017-Dec-01 20:59N 45°38' W 122°42'0 0.0
2017-Dec-01 20:29N 45°38' W 122°42'0 0.0
2017-Dec-01 19:52N 45°38' W 122°42'0 0.0
2017-Dec-01 19:29N 45°38' W 122°42'0 0.0
2017-Dec-01 18:56N 45°38' W 122°42'0 0.0
2017-Dec-01 18:30N 45°38' W 122°42'0 0.1
2017-Dec-01 17:55N 45°38' W 122°42'0 0.0
2017-Dec-01 17:25N 45°38' W 122°42'0 0.0
2017-Dec-01 16:49N 45°38' W 122°42'0 0.0
2017-Dec-01 16:21N 45°38' W 122°42'0 0.0
2017-Dec-01 15:57N 45°38' W 122°42'0 0.0
2017-Dec-01 15:27N 45°38' W 122°42'0 0.0
2017-Dec-01 15:00N 45°38' W 122°42'0 0.1
2017-Dec-01 14:25N 45°38' W 122°42'0 0.0
2017-Dec-01 00:28N 45°38' W 122°42'0 0.0
2017-Nov-30 23:42N 45°38' W 122°42'0 0.0
2017-Nov-30 23:30N 45°38' W 122°42'0 0.0
2017-Nov-30 22:57N 45°38' W 122°42'0 0.9
2017-Nov-30 22:30N 45°38' W 122°43'2 2.6
2017-Nov-30 21:55N 45°39' W 122°45'0 0.0
2017-Nov-30 21:25N 45°39' W 122°45'1 2.1
2017-Nov-30 21:00N 45°39' W 122°44'1 2.2
2017-Nov-30 20:30N 45°38' W 122°42'0 0.1
2017-Nov-30 19:56N 45°38' W 122°42'0 0.0
2017-Nov-30 19:29N 45°38' W 122°42'0 0.1
2017-Nov-30 18:58N 45°38' W 122°42'0 0.0
2017-Nov-30 18:24N 45°38' W 122°42'0 0.0
2017-Nov-30 18:00N 45°38' W 122°42'0 0.0
2017-Nov-30 17:30N 45°38' W 122°42'0 0.1
2017-Nov-30 16:50N 45°38' W 122°42'0 0.0
2017-Nov-30 16:29N 45°38' W 122°42'0 0.0
2017-Nov-30 15:57N 45°38' W 122°42'0 0.0
2017-Nov-29 22:45N 45°38' W 122°42'0 0.0
2017-Nov-29 22:29N 45°38' W 122°42'0 0.0
2017-Nov-29 21:58N 45°38' W 122°42'0 0.0
2017-Nov-29 21:24N 45°38' W 122°42'0 0.1
2017-Nov-29 20:51N 45°38' W 122°42'0 0.0
2017-Nov-29 20:28N 45°38' W 122°42'0 0.4
2017-Nov-29 19:52N 45°38' W 122°42'0 0.1
2017-Nov-29 19:29N 45°38' W 122°42'0 0.0
2017-Nov-29 18:56N 45°38' W 122°42'0 0.0
2017-Nov-29 18:25N 45°38' W 122°42'0 0.0
2017-Nov-29 17:57N 45°38' W 122°42'0 0.0
2017-Nov-29 17:24N 45°38' W 122°42'0 0.0
2017-Nov-29 16:24N 45°38' W 122°42'0 0.0
2017-Nov-29 15:55N 45°38' W 122°42'0 0.1
2017-Nov-29 15:30N 45°38' W 122°42'0 0.0
2017-Nov-28 19:24N 45°38' W 122°42'0 0.0
2017-Nov-28 18:55N 45°38' W 122°42'0 0.0
2017-Nov-28 18:30N 45°38' W 122°42'0 0.0
2017-Nov-28 18:00N 45°38' W 122°42'0 0.0
2017-Nov-28 17:28N 45°38' W 122°42'0 0.0
2017-Nov-28 17:00N 45°38' W 122°42'2 4.0
2017-Nov-28 16:30N 45°39' W 122°45'0 0.6
2017-Nov-28 15:52N 45°39' W 122°45'0 0.0
2017-Nov-28 00:16N 45°39' W 122°45'0 0.6
2017-Nov-27 23:58N 45°39' W 122°45'2 5.3
2017-Nov-27 23:30N 45°38' W 122°42'0 0.1
2017-Nov-27 22:59N 45°38' W 122°42'0 0.1
2017-Nov-27 22:30N 45°38' W 122°42'  
Track history (hours):
 
Tides and Currents Weather Stations Pressure Air Temp Water Temp Dewpoint Dewpoint Depression Visibility Wind Speed Wind Dir Waves Ship Positions

Nova

Owner: Hickey Marine Enterprises, Inc., Vancouver, WA. More information available from US FCC via Universal Licensing System and Coast Guard Vessel Documentation Center.

Last reported at 2017-Dec-07 19:37 UTC. Time now 2017-Dec-16 16:55 UTC.
Position N 45°39' W 122°45'.
Warning: this ship's position is 8 days out of date.

Length 8 m; draft 0.2 m.

MMSI: 367425990.

Date/timePositionNaut miles runAvg speedWind from/ knotsBaromVisibWave heightAir tempDewpointWater temp
2017-Dec-07 19:37N 45°39' W 122°45'0 0.0
2017-Dec-07 19:30N 45°39' W 122°45'2 4.1
2017-Dec-07 19:00N 45°38' W 122°42'1 1.8
2017-Dec-07 18:30N 45°38' W 122°41'1 1.5
2017-Dec-07 17:59N 45°38' W 122°42'2 4.0
2017-Dec-07 17:29N 45°39' W 122°45'  
2017-Dec-02 00:03N 45°38' W 122°42'0 0.9
2017-Dec-01 23:57N 45°38' W 122°42'0 0.8
2017-Dec-01 23:29N 45°38' W 122°42'0 0.1
2017-Dec-01 23:00N 45°38' W 122°42'0 0.1
2017-Dec-01 22:30N 45°38' W 122°42'0 0.1
2017-Dec-01 21:57N 45°38' W 122°42'0 0.0
2017-Dec-01 21:30N 45°38' W 122°42'0 0.4
2017-Dec-01 20:59N 45°38' W 122°42'0 0.0
2017-Dec-01 20:29N 45°38' W 122°42'0 0.0
2017-Dec-01 19:52N 45°38' W 122°42'0 0.0
2017-Dec-01 19:29N 45°38' W 122°42'0 0.0
2017-Dec-01 18:56N 45°38' W 122°42'0 0.0
2017-Dec-01 18:30N 45°38' W 122°42'0 0.1
2017-Dec-01 17:55N 45°38' W 122°42'0 0.0
2017-Dec-01 17:25N 45°38' W 122°42'0 0.0
2017-Dec-01 16:49N 45°38' W 122°42'0 0.0
2017-Dec-01 16:21N 45°38' W 122°42'0 0.0
2017-Dec-01 15:57N 45°38' W 122°42'0 0.0
2017-Dec-01 15:27N 45°38' W 122°42'0 0.0
2017-Dec-01 15:00N 45°38' W 122°42'0 0.1
2017-Dec-01 14:25N 45°38' W 122°42'0 0.0
2017-Dec-01 00:28N 45°38' W 122°42'0 0.0
2017-Nov-30 23:42N 45°38' W 122°42'0 0.0
2017-Nov-30 23:30N 45°38' W 122°42'0 0.0
2017-Nov-30 22:57N 45°38' W 122°42'0 0.9
2017-Nov-30 22:30N 45°38' W 122°43'2 2.6
2017-Nov-30 21:55N 45°39' W 122°45'0 0.0
2017-Nov-30 21:25N 45°39' W 122°45'1 2.1
2017-Nov-30 21:00N 45°39' W 122°44'1 2.2
2017-Nov-30 20:30N 45°38' W 122°42'0 0.1
2017-Nov-30 19:56N 45°38' W 122°42'0 0.0
2017-Nov-30 19:29N 45°38' W 122°42'0 0.1
2017-Nov-30 18:58N 45°38' W 122°42'0 0.0
2017-Nov-30 18:24N 45°38' W 122°42'0 0.0
2017-Nov-30 18:00N 45°38' W 122°42'0 0.0
2017-Nov-30 17:30N 45°38' W 122°42'0 0.1
2017-Nov-30 16:50N 45°38' W 122°42'0 0.0
2017-Nov-30 16:29N 45°38' W 122°42'0 0.0
2017-Nov-30 15:57N 45°38' W 122°42'0 0.0
2017-Nov-29 22:45N 45°38' W 122°42'0 0.0
2017-Nov-29 22:29N 45°38' W 122°42'0 0.0
2017-Nov-29 21:58N 45°38' W 122°42'0 0.0
2017-Nov-29 21:24N 45°38' W 122°42'0 0.1
2017-Nov-29 20:51N 45°38' W 122°42'0 0.0
2017-Nov-29 20:28N 45°38' W 122°42'0 0.4
2017-Nov-29 19:52N 45°38' W 122°42'0 0.1
2017-Nov-29 19:29N 45°38' W 122°42'0 0.0
2017-Nov-29 18:56N 45°38' W 122°42'0 0.0
2017-Nov-29 18:25N 45°38' W 122°42'0 0.0
2017-Nov-29 17:57N 45°38' W 122°42'0 0.0
2017-Nov-29 17:24N 45°38' W 122°42'0 0.0
2017-Nov-29 16:24N 45°38' W 122°42'0 0.0
2017-Nov-29 15:55N 45°38' W 122°42'0 0.1
2017-Nov-29 15:30N 45°38' W 122°42'0 0.0
2017-Nov-28 19:24N 45°38' W 122°42'0 0.0
2017-Nov-28 18:55N 45°38' W 122°42'0 0.0
2017-Nov-28 18:30N 45°38' W 122°42'0 0.0
2017-Nov-28 18:00N 45°38' W 122°42'0 0.0
2017-Nov-28 17:28N 45°38' W 122°42'0 0.0
2017-Nov-28 17:00N 45°38' W 122°42'2 4.0
2017-Nov-28 16:30N 45°39' W 122°45'0 0.6
2017-Nov-28 15:52N 45°39' W 122°45'0 0.0
2017-Nov-28 00:16N 45°39' W 122°45'0 0.6
2017-Nov-27 23:58N 45°39' W 122°45'2 5.3
2017-Nov-27 23:30N 45°38' W 122°42'0 0.1
2017-Nov-27 22:59N 45°38' W 122°42'0 0.1
2017-Nov-27 22:30N 45°38' W 122°42'  

Dump ship's entire track history